createdAt,value
2018-04-22T00:01:15.957Z,38.25
2018-04-22T00:03:46.301Z,40.75
2018-04-22T00:06:17.053Z,40.00
2018-04-22T00:08:47.387Z,37.75
2018-04-22T00:11:17.721Z,38.50
2018-04-22T00:13:48.194Z,37.50
2018-04-22T00:16:19.306Z,39.75
2018-04-22T00:18:49.645Z,39.00
2018-04-22T00:21:20.393Z,35.75
2018-04-22T00:23:50.834Z,37.00
2018-04-22T00:26:21.101Z,37.75
2018-04-22T00:28:52.715Z,36.50
2018-04-22T00:31:23.262Z,36.25
2018-04-22T00:33:53.784Z,39.75
2018-04-22T00:36:25.218Z,38.75
2018-04-22T00:38:55.534Z,39.75
2018-04-22T00:41:26.525Z,38.25
2018-04-22T00:43:56.833Z,37.00
2018-04-22T00:46:33.217Z,39.75
2018-04-22T00:49:03.854Z,40.00
2018-04-22T00:51:34.044Z,41.00
2018-04-22T00:54:38.165Z,42.25
2018-04-22T00:57:08.692Z,39.75
2018-04-22T00:59:39.549Z,39.50
2018-04-22T01:02:09.798Z,38.00
2018-04-22T01:04:40.394Z,40.50
2018-04-22T01:07:10.858Z,40.00
2018-04-22T01:09:41.193Z,43.00
2018-04-22T01:12:11.817Z,39.50
2018-04-22T01:14:42.702Z,40.25
2018-04-22T01:17:13.351Z,40.00
2018-04-22T01:19:43.782Z,40.75
2018-04-22T01:22:14.035Z,39.25
2018-04-22T01:24:44.561Z,39.25
2018-04-22T01:27:15.103Z,38.75
2018-04-22T01:29:45.309Z,39.75
2018-04-22T01:32:15.689Z,43.25
2018-04-22T01:34:46.444Z,39.50
2018-04-22T01:37:16.703Z,40.25
2018-04-22T01:39:47.233Z,37.75
2018-04-22T01:42:18.948Z,39.25
2018-04-22T01:44:50.819Z,41.00
2018-04-22T01:47:21.731Z,40.50
2018-04-22T01:49:52.247Z,38.50
2018-04-22T01:52:22.527Z,40.50
2018-04-22T01:54:53.218Z,39.75
2018-04-22T01:57:23.483Z,40.00
2018-04-22T01:59:53.991Z,42.25
2018-04-22T02:02:25.958Z,40.00
2018-04-22T02:04:56.428Z,43.25
2018-04-22T02:07:27.264Z,43.75
2018-04-22T02:09:57.627Z,40.75
2018-04-22T02:12:28.843Z,39.75
2018-04-22T02:15:00.020Z,40.50
2018-04-22T02:17:31.240Z,39.25
2018-04-22T02:20:01.323Z,42.75
2018-04-22T02:22:31.770Z,41.25
2018-04-22T02:25:01.867Z,42.25
2018-04-22T02:27:32.084Z,44.25
2018-04-22T02:30:06.597Z,42.25
2018-04-22T02:32:37.182Z,40.75
2018-04-22T02:35:07.384Z,40.00
2018-04-22T02:37:38.480Z,41.00
2018-04-22T02:40:14.266Z,38.75
2018-04-22T02:42:52.934Z,41.75
2018-04-22T02:45:30.096Z,41.00
2018-04-22T02:48:02.197Z,40.25
2018-04-22T02:53:43.249Z,39.75
2018-04-22T02:56:15.387Z,41.25
2018-04-22T02:58:45.611Z,42.00
2018-04-22T03:01:15.831Z,42.75
2018-04-22T03:04:04.490Z,42.75
2018-04-22T03:06:39.867Z,41.50
2018-04-22T03:09:22.129Z,41.25
2018-04-22T03:11:54.832Z,43.75
2018-04-22T03:14:25.494Z,41.00
2018-04-22T03:16:56.271Z,41.75
2018-04-22T03:22:30.278Z,41.25
2018-04-22T03:25:00.447Z,41.25
2018-04-22T03:27:31.442Z,41.50
2018-04-22T03:30:07.817Z,39.75
2018-04-22T03:32:38.970Z,43.50
2018-04-22T03:35:09.314Z,42.25
2018-04-22T03:37:40.309Z,42.75
2018-04-22T03:40:10.829Z,41.00
2018-04-22T03:42:42.811Z,43.00
2018-04-22T03:45:15.891Z,40.75
2018-04-22T03:47:50.903Z,40.50
2018-04-22T03:50:20.944Z,42.00
2018-04-22T03:52:51.787Z,40.75
2018-04-22T03:55:22.256Z,41.50
2018-04-22T03:57:52.547Z,43.25
2018-04-22T04:00:23.138Z,43.00
2018-04-22T04:02:55.428Z,41.25
2018-04-22T04:05:28.269Z,41.25
2018-04-22T04:07:58.391Z,41.75
2018-04-22T04:10:28.568Z,42.25
2018-04-22T04:12:59.104Z,41.25
2018-04-22T04:15:30.118Z,42.75
2018-04-22T04:18:09.393Z,42.25
2018-04-22T04:22:48.748Z,40.75
2018-04-22T04:27:32.701Z,44.00
2018-04-22T04:30:04.921Z,43.75
2018-04-22T04:32:36.471Z,41.50
2018-04-22T04:35:06.670Z,44.00
2018-04-22T04:37:36.920Z,45.75
2018-04-22T04:40:07.622Z,43.75
2018-04-22T04:42:37.786Z,44.50
2018-04-22T04:45:08.116Z,43.50
2018-04-22T04:47:38.603Z,44.75
2018-04-22T04:50:08.743Z,44.25
2018-04-22T04:52:39.283Z,45.00
2018-04-22T04:55:09.553Z,44.50
2018-04-22T04:57:39.673Z,42.25
2018-04-22T05:00:10.902Z,41.50
2018-04-22T05:02:45.057Z,41.50
2018-04-22T05:05:15.261Z,43.00
2018-04-22T05:07:46.334Z,41.75
2018-04-22T05:10:16.584Z,43.75
2018-04-22T05:12:46.716Z,44.00
2018-04-22T05:15:17.227Z,44.75
2018-04-22T05:17:47.410Z,45.00
2018-04-22T05:20:18.094Z,43.50
2018-04-22T05:22:49.562Z,42.25
2018-04-22T05:25:19.701Z,44.25
2018-04-22T05:27:50.943Z,44.75
2018-04-22T05:30:22.127Z,46.00
2018-04-22T05:32:52.395Z,45.50
2018-04-22T05:35:31.233Z,45.00
2018-04-22T05:38:01.493Z,45.00
2018-04-22T05:40:31.699Z,44.00
2018-04-22T05:43:02.877Z,42.00
2018-04-22T05:45:33.683Z,44.25
2018-04-22T05:48:04.158Z,44.75
2018-04-22T05:50:34.380Z,41.25
2018-04-22T05:53:05.003Z,44.75
2018-04-22T05:55:35.098Z,46.00
2018-04-22T05:58:05.342Z,45.00
2018-04-22T06:00:36.820Z,42.00
2018-04-22T06:03:07.120Z,43.50
2018-04-22T06:05:37.816Z,42.00
2018-04-22T06:08:09.254Z,41.50
2018-04-22T06:10:39.541Z,43.75
2018-04-22T06:13:09.655Z,42.75
2018-04-22T06:18:41.056Z,43.00
2018-04-22T06:21:11.566Z,42.50
2018-04-22T06:23:42.520Z,41.50
2018-04-22T06:26:12.960Z,43.50
2018-04-22T06:28:43.452Z,41.25
2018-04-22T06:31:14.007Z,40.50
2018-04-22T06:33:44.202Z,39.25
2018-04-22T06:36:14.640Z,39.00
2018-04-22T06:38:44.912Z,41.00
2018-04-22T06:41:15.418Z,40.50
2018-04-22T06:43:45.869Z,40.50
2018-04-22T06:46:16.206Z,38.50
2018-04-22T06:48:48.299Z,38.25
2018-04-22T06:51:21.335Z,41.75
2018-04-22T06:53:52.823Z,40.75
2018-04-22T06:56:31.557Z,39.00
2018-04-22T06:59:01.699Z,39.75
2018-04-22T07:01:32.069Z,40.50
2018-04-22T07:04:02.627Z,38.75
2018-04-22T07:06:33.260Z,41.00
2018-04-22T07:09:03.429Z,39.75
2018-04-22T07:11:34.293Z,42.25
2018-04-22T07:14:04.528Z,40.00
2018-04-22T07:16:35.018Z,39.00
2018-04-22T07:19:13.886Z,38.50
2018-04-22T07:21:51.801Z,40.75
2018-04-22T07:24:23.005Z,39.00
2018-04-22T07:26:53.726Z,40.50
2018-04-22T07:29:23.950Z,40.25
2018-04-22T07:31:54.870Z,40.75
2018-04-22T07:34:25.282Z,40.50
2018-04-22T07:36:56.371Z,41.25
2018-04-22T07:39:42.609Z,39.25
2018-04-22T07:42:13.446Z,38.00
2018-04-22T07:44:45.467Z,40.50
2018-04-22T07:47:25.827Z,39.50
2018-04-22T07:55:36.692Z,39.25
2018-04-22T07:58:13.280Z,39.00
2018-04-22T08:00:45.327Z,38.25
2018-04-22T08:03:16.252Z,41.25
2018-04-22T08:05:46.361Z,41.00
2018-04-22T08:08:17.187Z,40.00
2018-04-22T08:10:47.433Z,41.00
2018-04-22T08:13:18.027Z,37.25
2018-04-22T08:15:49.240Z,37.25
2018-04-22T08:18:21.281Z,38.00
2018-04-22T08:20:59.091Z,39.75
2018-04-22T08:23:29.613Z,40.00
2018-04-22T08:26:00.400Z,39.00
2018-04-22T08:28:35.392Z,40.00
2018-04-22T08:31:06.817Z,38.75
2018-04-22T08:33:38.165Z,37.25
2018-04-22T08:36:12.326Z,36.75
2018-04-22T08:38:55.848Z,35.25
2018-04-22T08:41:33.330Z,37.75
2018-04-22T08:44:07.072Z,36.75
2018-04-22T08:46:40.163Z,40.00
2018-04-22T08:49:15.436Z,37.00
2018-04-22T08:54:28.051Z,37.25
2018-04-22T08:57:00.175Z,37.75
2018-04-22T08:59:31.198Z,37.50
2018-04-22T09:02:04.349Z,38.25
2018-04-22T09:04:40.199Z,38.00
2018-04-22T09:07:24.047Z,37.50
2018-04-22T09:10:00.231Z,35.75
2018-04-22T09:12:31.073Z,36.00
2018-04-22T09:15:03.428Z,38.75
2018-04-22T09:17:36.044Z,38.00
2018-04-22T09:20:06.411Z,35.00
2018-04-22T09:22:37.441Z,38.75
2018-04-22T09:25:14.160Z,38.25
2018-04-22T09:27:44.477Z,35.50
2018-04-22T09:30:22.606Z,36.00
2018-04-22T09:32:53.533Z,36.00
2018-04-22T09:35:27.173Z,36.25
2018-04-22T09:37:57.504Z,34.75
2018-04-22T09:40:31.669Z,37.00
2018-04-22T09:43:11.825Z,37.25
2018-04-22T09:45:47.992Z,36.50
2018-04-22T09:48:18.833Z,34.75
2018-04-22T09:50:49.539Z,35.50
2018-04-22T09:53:20.051Z,36.00
2018-04-22T09:55:53.105Z,37.00
2018-04-22T09:58:24.104Z,34.50
2018-04-22T10:01:01.983Z,31.00
2018-04-22T10:03:32.551Z,34.25
2018-04-22T10:06:08.635Z,33.00
2018-04-22T10:08:39.722Z,31.50
2018-04-22T10:11:10.304Z,33.75
2018-04-22T10:13:40.771Z,33.50
2018-04-22T10:16:11.810Z,31.75
2018-04-22T10:18:42.828Z,32.25
2018-04-22T10:21:14.443Z,31.00
2018-04-22T10:23:44.730Z,33.00
2018-04-22T10:26:24.836Z,31.00
2018-04-22T10:28:57.435Z,29.50
2018-04-22T10:31:29.615Z,31.25
2018-04-22T10:34:01.092Z,30.75
2018-04-22T10:36:32.425Z,30.00
2018-04-22T10:39:02.783Z,27.50
2018-04-22T10:41:33.887Z,31.25
2018-04-22T10:44:05.892Z,30.25
2018-04-22T10:46:37.253Z,43.50
2018-04-22T10:49:08.092Z,29.25
2018-04-22T10:51:38.653Z,33.00
2018-04-22T10:54:08.929Z,29.00
2018-04-22T10:56:40.528Z,27.50
2018-04-22T10:59:11.568Z,32.75
2018-04-22T11:01:42.444Z,30.75
2018-04-22T11:04:16.151Z,30.75
2018-04-22T11:06:47.539Z,25.25
2018-04-22T11:09:17.913Z,31.25
2018-04-22T11:11:56.973Z,30.25
2018-04-22T11:14:28.365Z,30.50
2018-04-22T11:17:00.653Z,29.75
2018-04-22T11:19:31.615Z,28.75
2018-04-22T11:22:04.814Z,35.00
2018-04-22T11:24:35.113Z,26.00
2018-04-22T11:27:06.087Z,23.25
2018-04-22T11:29:40.070Z,22.00
2018-04-22T11:32:10.735Z,24.25
2018-04-22T11:35:21.154Z,21.25
2018-04-22T11:37:55.257Z,27.75
2018-04-22T11:40:26.841Z,27.00
2018-04-22T11:42:58.258Z,25.50
2018-04-22T11:45:29.332Z,20.00
2018-04-22T11:47:59.789Z,21.25
2018-04-22T11:50:30.147Z,20.75
2018-04-22T11:53:00.696Z,22.25
2018-04-22T11:55:35.256Z,18.50
2018-04-22T11:58:06.698Z,22.25
2018-04-22T12:00:40.812Z,21.50
2018-04-22T12:03:11.783Z,22.00
2018-04-22T12:05:42.082Z,19.75
2018-04-22T12:08:15.610Z,19.50
2018-04-22T12:10:46.152Z,20.25
2018-04-22T12:13:24.432Z,18.25
2018-04-22T12:16:03.267Z,21.75
2018-04-22T12:18:36.923Z,19.50
2018-04-22T12:21:07.326Z,17.50
2018-04-22T12:23:40.499Z,16.75
2018-04-22T12:26:11.032Z,19.00
2018-04-22T12:28:41.340Z,18.75
2018-04-22T12:31:11.784Z,18.75
2018-04-22T12:33:53.932Z,20.50
2018-04-22T12:36:34.320Z,17.50
2018-04-22T12:39:08.878Z,21.00
2018-04-22T12:41:39.450Z,17.75
2018-04-22T12:44:10.939Z,19.75
2018-04-22T12:46:42.168Z,23.00
2018-04-22T12:52:12.515Z,20.25
2018-04-22T12:54:43.320Z,21.75
2018-04-22T12:57:15.470Z,21.75
2018-04-22T12:59:53.980Z,20.75
2018-04-22T13:02:25.491Z,21.25
2018-04-22T13:04:59.374Z,24.75
2018-04-22T13:07:30.696Z,23.25
2018-04-22T13:10:09.058Z,20.75
2018-04-22T13:12:44.539Z,22.00
2018-04-22T13:15:20.785Z,22.00
2018-04-22T13:17:52.344Z,28.00
2018-04-22T13:23:05.702Z,30.00
2018-04-22T13:25:36.929Z,27.50
2018-04-22T13:28:23.120Z,30.50
2018-04-22T13:31:14.416Z,29.00
2018-04-22T13:33:46.198Z,28.75
2018-04-22T13:36:19.544Z,31.00
2018-04-22T13:38:50.980Z,29.25
2018-04-22T13:41:22.509Z,28.75
2018-04-22T13:43:55.800Z,31.00
2018-04-22T13:46:27.398Z,31.75
2018-04-22T13:48:57.559Z,31.00
2018-04-22T13:51:31.368Z,29.75
2018-04-22T13:54:01.746Z,31.00
2018-04-22T13:56:33.797Z,29.00
2018-04-22T13:59:15.303Z,30.50
2018-04-22T14:01:45.779Z,30.50
2018-04-22T14:04:16.639Z,31.00
2018-04-22T14:06:47.452Z,30.00
2018-04-22T14:09:17.681Z,31.00
2018-04-22T14:11:49.006Z,30.75
2018-04-22T14:14:19.253Z,30.00
2018-04-22T14:16:51.693Z,29.00
2018-04-22T14:22:04.352Z,28.00
2018-04-22T14:24:41.862Z,24.50
2018-04-22T14:27:14.833Z,24.25
2018-04-22T14:29:45.491Z,17.00
2018-04-22T14:32:16.794Z,19.25
2018-04-22T14:34:49.802Z,16.25
2018-04-22T14:37:21.641Z,18.50
2018-04-22T14:39:54.852Z,19.00
2018-04-22T14:42:25.519Z,23.00
2018-04-22T14:45:10.167Z,23.75
2018-04-22T14:47:46.827Z,19.75
2018-04-22T14:50:22.802Z,22.50
2018-04-22T14:53:02.140Z,21.25
2018-04-22T14:55:38.710Z,21.75
2018-04-22T14:58:12.481Z,22.00
2018-04-22T15:03:21.850Z,19.75
2018-04-22T15:05:54.901Z,19.00
2018-04-22T15:08:27.003Z,22.25
2018-04-22T15:10:58.382Z,19.25
2018-04-22T15:13:30.450Z,17.00
2018-04-22T15:16:06.053Z,19.75
2018-04-22T15:18:43.738Z,17.75
2018-04-22T15:21:15.549Z,20.00
2018-04-22T15:23:47.299Z,20.00
2018-04-22T15:26:19.267Z,20.25
2018-04-22T15:28:50.928Z,19.75
2018-04-22T15:31:23.292Z,21.25
2018-04-22T15:33:58.117Z,21.00
2018-04-22T15:36:29.700Z,18.75
2018-04-22T15:39:00.989Z,20.00
2018-04-22T15:41:32.542Z,21.00
2018-04-22T15:44:04.471Z,18.00
2018-04-22T15:46:35.928Z,17.50
2018-04-22T15:49:07.238Z,19.00
2018-04-22T15:51:39.011Z,19.00
2018-04-22T15:54:10.921Z,19.00
2018-04-22T15:56:42.201Z,25.75
2018-04-22T15:59:14.147Z,26.00
2018-04-22T16:01:46.206Z,28.75
2018-04-22T16:04:20.859Z,26.25
2018-04-22T16:06:52.263Z,26.00
2018-04-22T16:09:24.055Z,24.50
2018-04-22T16:11:55.898Z,21.00
2018-04-22T16:14:29.839Z,20.50
2018-04-22T16:17:02.114Z,19.50
2018-04-22T16:19:35.888Z,17.75
2018-04-22T16:22:07.780Z,22.00
2018-04-22T16:24:39.479Z,19.50
2018-04-22T16:27:11.148Z,18.00
2018-04-22T16:30:04.474Z,18.25
2018-04-22T16:32:36.496Z,19.00
2018-04-22T16:35:09.025Z,21.00
2018-04-22T16:37:43.360Z,16.00
2018-04-22T16:40:15.480Z,16.75
2018-04-22T16:42:47.350Z,18.00
2018-04-22T16:45:27.576Z,17.00
2018-04-22T16:47:58.920Z,18.00
2018-04-22T16:50:30.765Z,19.75
2018-04-22T16:53:08.626Z,20.25
2018-04-22T16:55:39.806Z,19.00
2018-04-22T16:58:11.176Z,20.50
2018-04-22T17:00:44.421Z,22.75
2018-04-22T17:03:16.498Z,21.50
2018-04-22T17:05:47.919Z,20.75
2018-04-22T17:08:23.703Z,20.25
2018-04-22T17:10:55.141Z,21.25
2018-04-22T17:16:20.154Z,20.00
2018-04-22T17:18:54.661Z,20.25
2018-04-22T17:23:52.217Z,22.75
2018-04-22T17:26:23.982Z,24.00
2018-04-22T17:28:55.541Z,22.25
2018-04-22T17:31:27.488Z,22.25
2018-04-22T17:34:01.440Z,22.00
2018-04-22T17:36:32.884Z,21.50
2018-04-22T17:39:04.872Z,19.25
2018-04-22T17:41:36.371Z,21.50
2018-04-22T17:44:11.526Z,20.25
2018-04-22T17:46:44.876Z,23.00
2018-04-22T17:49:16.329Z,21.00
2018-04-22T17:51:47.949Z,22.00
2018-04-22T17:54:19.651Z,23.75
2018-04-22T17:56:55.255Z,25.75
2018-04-22T17:59:30.557Z,22.75
2018-04-22T18:02:03.867Z,20.75
2018-04-22T18:04:35.226Z,19.50
2018-04-22T18:07:08.758Z,20.00
2018-04-22T18:09:40.875Z,21.50
2018-04-22T18:12:12.535Z,17.25
2018-04-22T18:14:44.383Z,15.75
2018-04-22T18:17:17.673Z,14.50
2018-04-22T18:19:50.037Z,15.50
2018-04-22T18:22:41.366Z,14.50
2018-04-22T18:25:13.090Z,15.00
2018-04-22T18:27:44.803Z,15.25
2018-04-22T18:30:19.531Z,15.50
2018-04-22T18:32:52.291Z,14.50
2018-04-22T18:35:25.336Z,13.50
2018-04-22T18:38:14.745Z,15.25
2018-04-22T18:40:46.765Z,13.50
2018-04-22T18:43:18.767Z,14.75
2018-04-22T18:45:51.180Z,12.75
2018-04-22T18:48:26.107Z,13.25
2018-04-22T18:53:58.210Z,14.00
2018-04-22T18:56:29.659Z,11.50
2018-04-22T18:59:01.570Z,13.00
2018-04-22T19:01:36.319Z,15.25
2018-04-22T19:04:08.229Z,12.75
2018-04-22T19:06:41.669Z,14.00
2018-04-22T19:09:24.470Z,14.00
2018-04-22T19:11:56.770Z,13.25
2018-04-22T19:14:30.024Z,14.25
2018-04-22T19:17:02.483Z,14.75
2018-04-22T19:19:33.927Z,14.50
2018-04-22T19:22:06.095Z,15.25
2018-04-22T19:24:37.932Z,16.75
2018-04-22T19:27:10.093Z,14.25
2018-04-22T19:29:42.709Z,16.00
2018-04-22T19:34:56.196Z,18.75
2018-04-22T19:37:30.660Z,17.75
2018-04-22T19:40:13.556Z,18.25
2018-04-22T19:42:55.538Z,15.75
2018-04-22T19:45:33.121Z,21.50
2018-04-22T19:48:06.401Z,20.25
2018-04-22T19:50:38.474Z,24.50
2018-04-22T19:53:10.158Z,23.50
2018-04-22T19:55:41.900Z,23.75
2018-04-22T19:58:14.802Z,23.50
2018-04-22T20:00:46.755Z,23.00
2018-04-22T20:03:18.212Z,23.00
2018-04-22T20:05:56.098Z,23.75
2018-04-22T20:08:27.490Z,23.50
2018-04-22T20:11:00.221Z,26.00
2018-04-22T20:13:32.128Z,26.00
2018-04-22T20:16:06.963Z,27.00
2018-04-22T20:18:43.278Z,28.00
2018-04-22T20:21:16.099Z,23.25
2018-04-22T20:23:48.363Z,24.00
2018-04-22T20:26:20.324Z,25.75
2018-04-22T20:28:55.970Z,26.00
2018-04-22T20:31:35.577Z,25.25
2018-04-22T20:34:07.508Z,25.50
2018-04-22T20:36:45.023Z,27.50
2018-04-22T20:39:17.674Z,27.00
2018-04-22T20:41:49.289Z,26.50
2018-04-22T20:44:21.348Z,30.50
2018-04-22T20:46:53.855Z,30.00
2018-04-22T20:49:25.631Z,29.00
2018-04-22T20:51:59.463Z,30.25
2018-04-22T20:54:31.280Z,28.00
2018-04-22T20:57:03.022Z,26.50
2018-04-22T20:59:34.574Z,26.75
2018-04-22T21:02:07.180Z,28.00
2018-04-22T21:04:39.162Z,26.00
2018-04-22T21:07:11.047Z,26.75
2018-04-22T21:09:42.562Z,25.75
2018-04-22T21:12:14.002Z,25.25
2018-04-22T21:14:46.183Z,28.25
2018-04-22T21:20:05.221Z,27.50
2018-04-22T21:22:44.526Z,27.50
2018-04-22T21:25:16.805Z,26.25
2018-04-22T21:27:49.934Z,27.00
2018-04-22T21:30:23.268Z,26.50
2018-04-22T21:33:02.790Z,25.50
2018-04-22T21:35:34.843Z,27.00
2018-04-22T21:38:06.905Z,27.00
2018-04-22T21:40:39.538Z,26.00
2018-04-22T21:43:10.993Z,28.75
2018-04-22T21:45:43.301Z,25.50
2018-04-22T21:48:15.528Z,26.75
2018-04-22T21:50:54.618Z,27.25
2018-04-22T21:53:32.454Z,25.50
2018-04-22T21:56:05.867Z,28.50
2018-04-22T21:58:38.242Z,29.25
2018-04-22T22:01:10.586Z,29.00
2018-04-22T22:03:42.628Z,28.50
2018-04-22T22:06:14.329Z,27.50
2018-04-22T22:08:45.806Z,28.00
2018-04-22T22:11:17.272Z,26.75
2018-04-22T22:13:48.654Z,26.00
2018-04-22T22:16:20.663Z,29.50
2018-04-22T22:18:52.370Z,28.00
2018-04-22T22:21:24.549Z,31.25
2018-04-22T22:23:56.141Z,28.00
2018-04-22T22:26:28.364Z,25.25
2018-04-22T22:28:59.888Z,27.75
2018-04-22T22:31:32.922Z,26.50
2018-04-22T22:34:04.370Z,28.00
2018-04-22T22:36:35.958Z,31.50
2018-04-22T22:39:08.292Z,30.50
2018-04-22T22:41:40.555Z,29.25
2018-04-22T22:44:11.930Z,31.50
2018-04-22T22:46:43.821Z,32.00
2018-04-22T22:49:15.332Z,32.50
2018-04-22T22:51:46.926Z,30.75
2018-04-22T22:54:18.366Z,32.50
2018-04-22T22:56:50.039Z,30.00
2018-04-22T22:59:21.541Z,27.00
2018-04-22T23:01:53.704Z,28.75
2018-04-22T23:04:25.352Z,31.00
2018-04-22T23:06:57.506Z,29.00
2018-04-22T23:09:29.564Z,30.75
2018-04-22T23:12:01.233Z,32.00
2018-04-22T23:14:32.507Z,32.00
2018-04-22T23:17:04.139Z,33.00
2018-04-22T23:19:35.439Z,32.00
2018-04-22T23:22:08.347Z,33.75
2018-04-22T23:24:40.631Z,31.00
2018-04-22T23:27:13.678Z,31.75
2018-04-22T23:29:46.269Z,29.50
2018-04-22T23:32:18.406Z,33.00
2018-04-22T23:34:49.668Z,29.00
2018-04-22T23:37:21.103Z,30.75
2018-04-22T23:39:52.776Z,29.50
2018-04-22T23:42:24.056Z,28.00
2018-04-22T23:44:55.841Z,32.25
2018-04-22T23:47:28.148Z,31.75
2018-04-22T23:52:56.453Z,31.25
2018-04-22T23:55:27.757Z,26.00
2018-04-22T23:57:59.568Z,29.25
